SKBQSKRH

Guest
Details From SKBQ - Ernesto Cortissoz
To SKRH - ALMIRANTE PADILLA
Flight Number -
Tags generated
Created
Modified
Stats Distance 116 nm / 215 km
Max Altitude 9,400 ft / 2,865 m
Waypoints 3
Social Downloads 6
Likes 0
Share VATSIM

Download

Looking for another format? Having issues loading an existing format? Contact us
Advertisement - Login to hide

Notes

Basic altitude profile: - Ascent Rate: 2500ft/min - Ascent Speed: 250kts - Cruise Altitude: 35000ft - Cruise Speed: 420kts - Descent Rate: 1500ft/min - Descent Speed: 250kts

Route

SKBQ NERVA SKRH

ID Type Via Altitude Latitude Longitude Leg Dist Tot Dist Heading (true) Name
O SKBQ APT - 0 ft / 0 m 10.88959˚ -74.78082˚ - 0 nm - Ernesto Cortissoz
NERVA FIX - 9,400 ft / 2,865 m 11.19972˚ -73.68778˚ 67 nm 67 nm 74° / 74° -
O SKRH APT - 0 ft / 0 m 11.52622˚ -72.92596˚ 48 nm 116 nm 66° / 66° ALMIRANTE PADILLA

Altitude Profile

Advertisement - Login to hide

SKBQ

Details ICAO SKBQ (BAQ)
Name Ernesto Cortissoz
Region Colombia
Timezone America/Bogota (UTC-5.0)
Stats Elevation 98 ft / 30 m (AMSL)
Location 10.889589° -74.780820°
Runways 1
Magnetic Variation 7.727° W

METAR

SKBQ 141700Z 08003KT CAVOK 32/25 A2985

Decode

TAF

Not found

Departure Runways

ID Width Length Bearing (true) Bearing (mag) Surface Threshold Offset Overrun Length
05 148 ft / 45 m 9,863 ft / 3,006 m 40.09° 47.82° Concrete 0 ft / 0 m 105 ft / 32 m
23 148 ft / 45 m 9,863 ft / 3,006 m 220.09° 227.82° Concrete 0 ft / 0 m 0 ft / 0 m

SKRH

Details ICAO SKRH (RCH)
Name ALMIRANTE PADILLA
Region Colombia
Timezone America/Bogota (UTC-5.0)
Stats Elevation 43 ft / 13 m (AMSL)
Location 11.526222° -72.925958°
Runways 1
Magnetic Variation 8.954° W

METAR

SKRH 141700Z 13018KT CAVOK 32/17 A2985

Decode

TAF

Not found

Destination Runways

ID Width Length Bearing (true) Bearing (mag) Surface Threshold Offset Overrun Length
09 98 ft / 30 m 5,409 ft / 1,649 m 88.32° 97.27° Asphalt 0 ft / 0 m 0 ft / 0 m
27 98 ft / 30 m 5,409 ft / 1,649 m 268.33° 277.28° Asphalt 0 ft / 0 m 0 ft / 0 m